KRKW/RKW METAR and TAF weather

Enter ICAO airport designator
Station Type Date Time Source
KRKW METAR 2018/12/15 21:15 UTC NOAA

KRKW 152115Z AUTO 27007KT 230V300 2 1/2SM BR FEW014 FEW020 OVC025 07/07 A2988 RMK A01


Station Type Date Time Source
KRKW Decoded METAR 2018/12/15 21:15 UTC NOAA

Station name not available
Dec 15, 2018 - 04:15 PM EST / 2018.12.15 2115 UTC
Wind: from the W (270 degrees) at 8 MPH (7 KT) (direction variable):0
Visibility: 2 1/2 mile(s):0
Sky conditions: overcast
Weather: mist
Temperature: 44 F (7 C)
Dew Point: 44 F (7 C)
Relative Humidity: 100%
Pressure (altimeter): 29.88 in. Hg (1011 hPa)
ob: KRKW 152115Z AUTO 27007KT 230V300 2 1/2SM BR FEW014 FEW020 OVC025 07/07 A2988 RMK A01
cycle: 21

Station Type Date Time Source
KRKW TAF 2009/08/31 19:50 UTC NOAA

METAR KRKW 311950Z AUTO VRB05KT 10SM CLR 25/13 A3010
RMK AO1 T02500133 $


Example: see airport list